Time;durP1;ratioP1;P1;durP2;ratioP2;P2;SDS_P1;SDS_P2;PMS_P1;PMS_P2;Temp;Humidity;BMP_temperature;BMP_pressure;BME280_temperature;BME280_humidity;BME280_pressure;Samples;Min_cycle;Max_cycle;Signal;HPM_P1;HPM_P2
2023/03/14 00:01:17;;;;;;;1.10;0.60;;;12.10;99.90;;;;;;7391592;19;20135;-77
2023/03/14 00:03:44;;;;;;;0.70;0.50;;;12.20;99.90;;;;;;7392858;19;20343;-77
2023/03/14 00:06:11;;;;;;;0.63;0.60;;;12.30;99.90;;;;;;7392873;19;20161;-77
2023/03/14 00:11:16;;;;;;;1.17;0.50;;;12.30;99.90;;;;;;7392099;19;20166;-75
2023/03/14 00:13:51;;;;;;;2.20;0.60;;;12.20;99.90;;;;;;7394343;19;20150;-77
2023/03/14 00:16:18;;;;;;;0.90;0.60;;;12.30;99.90;;;;;;7392139;19;20138;-76
2023/03/14 00:18:43;;;;;;;0.97;0.60;;;12.40;99.90;;;;;;7392535;19;20146;-76
2023/03/14 00:21:11;;;;;;;1.13;0.67;;;12.40;99.90;;;;;;7390761;19;20598;-77
2023/03/14 00:23:38;;;;;;;0.90;0.67;;;12.40;99.90;;;;;;7392395;19;20134;-76
2023/03/14 00:26:07;;;;;;;0.98;0.50;;;12.40;99.90;;;;;;7391628;19;20480;-76
2023/03/14 00:28:33;;;;;;;2.00;0.40;;;12.20;99.90;;;;;;7393253;19;20150;-75
2023/03/14 00:31:01;;;;;;;1.30;0.63;;;12.20;99.90;;;;;;7391043;19;20142;-77
2023/03/14 00:33:27;;;;;;;0.70;0.63;;;12.30;99.90;;;;;;7390479;19;20606;-77
2023/03/14 00:35:56;;;;;;;1.98;0.55;;;12.40;99.90;;;;;;7390920;19;20142;-76
2023/03/14 00:38:24;;;;;;;1.30;0.60;;;12.50;99.90;;;;;;7391292;19;20131;-78
2023/03/14 00:40:54;;;;;;;0.80;0.60;;;12.40;99.90;;;;;;7394132;19;20151;-76
2023/03/14 00:43:21;;;;;;;0.80;0.50;;;12.50;99.90;;;;;;7390881;19;20609;-77
2023/03/14 00:45:48;;;;;;;0.93;0.57;;;12.50;99.90;;;;;;7392062;19;20206;-77
2023/03/14 00:48:14;;;;;;;0.40;0.40;;;12.40;99.90;;;;;;7389252;19;20168;-78
2023/03/14 00:50:40;;;;;;;1.00;0.60;;;12.40;99.90;;;;;;7392800;19;20591;-76
2023/03/14 00:53:06;;;;;;;0.60;0.50;;;12.50;99.90;;;;;;7391647;19;20210;-77
2023/03/14 00:55:31;;;;;;;0.70;0.50;;;12.50;99.90;;;;;;7393198;19;20169;-77
2023/03/14 00:57:57;;;;;;;0.90;0.60;;;12.60;99.90;;;;;;7390131;19;20138;-77
2023/03/14 01:00:24;;;;;;;1.73;0.50;;;12.80;99.90;;;;;;7392128;19;20462;-77
2023/03/14 01:02:50;;;;;;;1.47;0.60;;;12.60;99.90;;;;;;7388781;19;20135;-76
2023/03/14 01:05:15;;;;;;;0.90;0.50;;;12.50;99.90;;;;;;7388435;19;20614;-77
2023/03/14 01:07:41;;;;;;;0.80;0.60;;;12.30;99.90;;;;;;7390791;19;20178;-77
2023/03/14 01:10:08;;;;;;;0.73;0.65;;;12.30;99.90;;;;;;7391028;19;20139;-75
2023/03/14 01:12:34;;;;;;;0.65;0.55;;;12.50;99.90;;;;;;7390349;19;20682;-78
2023/03/14 01:15:00;;;;;;;0.73;0.40;;;12.40;99.90;;;;;;7393237;19;20142;-77
2023/03/14 01:17:26;;;;;;;0.75;0.50;;;12.50;99.90;;;;;;7392809;19;20163;-76
2023/03/14 01:19:51;;;;;;;0.63;0.43;;;12.50;99.90;;;;;;7389312;19;20139;-76
2023/03/14 01:22:17;;;;;;;0.60;0.50;;;12.50;99.90;;;;;;7390057;19;20135;-77
2023/03/14 01:24:43;;;;;;;1.33;0.40;;;12.40;99.90;;;;;;7390948;19;20198;-77
2023/03/14 01:27:09;;;;;;;1.10;0.60;;;12.40;99.90;;;;;;7385900;19;20226;-78
2023/03/14 01:29:34;;;;;;;0.90;0.47;;;12.60;99.90;;;;;;7389164;19;20135;-77
2023/03/14 01:32:00;;;;;;;0.70;0.43;;;12.50;99.90;;;;;;7389721;19;20146;-78
2023/03/14 01:34:26;;;;;;;0.82;0.30;;;12.70;99.90;;;;;;7390380;19;20191;-76
2023/03/14 01:36:52;;;;;;;1.38;0.50;;;12.60;99.90;;;;;;7391709;19;20612;-76
2023/03/14 01:39:17;;;;;;;0.40;0.40;;;12.60;99.90;;;;;;7391478;19;20144;-76
2023/03/14 01:41:43;;;;;;;0.47;0.40;;;12.50;99.90;;;;;;7388821;19;20160;-76
2023/03/14 01:44:13;;;;;;;0.82;0.47;;;12.30;99.90;;;;;;7389296;19;20707;-77
2023/03/14 01:46:39;;;;;;;1.60;0.80;;;12.30;99.90;;;;;;7390533;19;20154;-76
2023/03/14 01:49:29;;;;;;;0.70;0.55;;;12.40;99.90;;;;;;7390718;19;20131;-77
2023/03/14 01:52:12;;;;;;;0.93;0.60;;;12.50;99.90;;;;;;7389669;19;20607;-76
2023/03/14 01:54:44;;;;;;;0.57;0.50;;;12.30;99.90;;;;;;7385980;19;20154;-77
2023/03/14 01:57:21;;;;;;;0.50;0.40;;;12.10;99.90;;;;;;7391283;19;20250;-76
2023/03/14 02:00:15;;;;;;;1.40;0.60;;;12.30;99.90;;;;;;7390416;19;20127;-77
2023/03/14 02:02:45;;;;;;;1.27;0.73;;;12.40;99.90;;;;;;7388625;19;20138;-76
2023/03/14 02:05:14;;;;;;;2.28;0.70;;;12.40;99.90;;;;;;7387105;19;20150;-76
2023/03/14 02:07:50;;;;;;;0.40;0.40;;;12.30;99.90;;;;;;7389839;19;20135;-76
2023/03/14 02:10:20;;;;;;;0.70;0.60;;;12.30;99.90;;;;;;7388414;19;20145;-76
2023/03/14 02:12:52;;;;;;;0.75;0.40;;;12.30;99.90;;;;;;7391466;19;20142;-76
2023/03/14 02:15:18;;;;;;;1.27;0.73;;;12.30;99.90;;;;;;7388574;19;20138;-74
2023/03/14 02:17:45;;;;;;;2.07;0.60;;;12.40;99.90;;;;;;7390890;19;20147;-76
2023/03/14 02:20:36;;;;;;;1.40;0.63;;;12.40;99.90;;;;;;7388026;19;20139;-75
2023/03/14 02:23:02;;;;;;;3.70;0.95;;;12.30;99.90;;;;;;7387793;19;20183;-77
2023/03/14 02:25:49;;;;;;;2.83;0.70;;;12.20;99.90;;;;;;7388709;19;20222;-76
2023/03/14 02:28:15;;;;;;;2.47;0.50;;;12.30;99.90;;;;;;7387474;19;20141;-76
2023/03/14 02:30:42;;;;;;;0.40;0.40;;;12.30;99.90;;;;;;7388883;19;20146;-75
2023/03/14 02:33:17;;;;;;;2.05;0.50;;;12.20;99.90;;;;;;7388997;19;20561;-76
2023/03/14 02:35:57;;;;;;;2.53;0.57;;;12.20;99.90;;;;;;7389252;19;20705;-76
2023/03/14 02:38:52;;;;;;;0.40;0.40;;;12.30;99.90;;;;;;7387919;19;20449;-76
2023/03/14 02:41:17;;;;;;;0.50;0.40;;;12.20;99.90;;;;;;7387120;19;20138;-77
2023/03/14 02:43:43;;;;;;;0.43;0.30;;;12.00;99.90;;;;;;7385662;19;20146;-75
2023/03/14 02:46:12;;;;;;;1.05;0.50;;;12.00;99.90;;;;;;7387319;19;20611;-76
2023/03/14 02:48:50;;;;;;;0.47;0.40;;;12.10;99.90;;;;;;7387677;19;20163;-76
2023/03/14 02:51:16;;;;;;;1.33;0.35;;;12.10;99.90;;;;;;7389660;19;20284;-75
2023/03/14 02:53:42;;;;;;;1.70;0.50;;;12.00;99.90;;;;;;7389013;19;20142;-75
2023/03/14 02:56:09;;;;;;;1.13;0.50;;;12.00;99.90;;;;;;7388346;19;20151;-76
2023/03/14 02:58:35;;;;;;;1.20;0.52;;;11.90;99.90;;;;;;7387201;19;20147;-76
2023/03/14 03:01:01;;;;;;;0.73;0.50;;;12.10;99.90;;;;;;7388939;19;20138;-76
2023/03/14 03:03:27;;;;;;;1.60;0.43;;;12.10;99.90;;;;;;7379902;19;20142;-76
2023/03/14 03:05:55;;;;;;;1.55;0.50;;;12.10;99.90;;;;;;7388433;19;20150;-76
2023/03/14 03:08:23;;;;;;;0.47;0.47;;;12.20;99.90;;;;;;7386784;19;20141;-76
2023/03/14 03:10:49;;;;;;;0.50;0.47;;;12.20;99.90;;;;;;7390800;19;20137;-77
2023/03/14 03:13:15;;;;;;;0.50;0.40;;;11.90;99.90;;;;;;7396768;19;20135;-76
2023/03/14 03:15:41;;;;;;;1.10;0.40;;;11.90;99.90;;;;;;7395681;19;20723;-75
2023/03/14 03:18:08;;;;;;;0.60;0.50;;;11.80;99.90;;;;;;7394926;19;20137;-76
2023/03/14 03:20:33;;;;;;;3.23;0.77;;;11.90;99.90;;;;;;7395444;19;20139;-77
2023/03/14 03:23:00;;;;;;;3.30;0.67;;;11.90;99.90;;;;;;7391758;19;20216;-77
2023/03/14 03:25:26;;;;;;;0.73;0.50;;;11.90;99.90;;;;;;7395174;19;20134;-76
2023/03/14 03:27:53;;;;;;;0.73;0.50;;;12.00;99.90;;;;;;7394235;19;20148;-75
2023/03/14 03:30:19;;;;;;;1.17;0.63;;;12.10;99.90;;;;;;7395525;19;20174;-76
2023/03/14 03:32:46;;;;;;;1.33;0.50;;;12.10;99.90;;;;;;7394466;19;20239;-74
2023/03/14 03:35:12;;;;;;;0.77;0.65;;;12.10;99.90;;;;;;7394723;19;20137;-76
2023/03/14 03:37:38;;;;;;;1.67;0.50;;;12.00;99.90;;;;;;7394417;19;20143;-76
2023/03/14 03:40:06;;;;;;;0.67;0.50;;;11.80;99.90;;;;;;7392566;19;20222;-77
2023/03/14 03:42:33;;;;;;;2.85;0.50;;;11.70;99.90;;;;;;7394596;19;20131;-76
2023/03/14 03:45:00;;;;;;;1.70;0.40;;;11.80;99.90;;;;;;7392885;19;20143;-76
2023/03/14 03:47:27;;;;;;;0.50;0.40;;;11.90;99.90;;;;;;7394182;19;20150;-75
2023/03/14 03:49:53;;;;;;;0.53;0.40;;;11.70;99.90;;;;;;7393992;19;20243;-76
2023/03/14 03:52:20;;;;;;;0.47;0.40;;;11.60;99.90;;;;;;7395287;19;20143;-75
2023/03/14 03:54:46;;;;;;;1.10;0.47;;;11.60;99.90;;;;;;7393922;19;20158;-76
2023/03/14 03:57:11;;;;;;;3.33;0.60;;;11.70;99.90;;;;;;7395624;19;20558;-77
2023/03/14 03:59:39;;;;;;;1.03;0.50;;;11.90;99.90;;;;;;7395127;19;20203;-76
2023/03/14 04:02:05;;;;;;;1.30;0.70;;;12.00;99.90;;;;;;7393165;19;20194;-77
2023/03/14 04:04:31;;;;;;;0.70;0.47;;;11.70;99.90;;;;;;7392763;19;20150;-76
2023/03/14 04:06:57;;;;;;;2.17;0.80;;;11.70;99.90;;;;;;7394435;19;20154;-76
2023/03/14 04:09:23;;;;;;;2.63;0.63;;;11.80;99.90;;;;;;7389261;19;20131;-76
2023/03/14 04:11:48;;;;;;;1.27;0.60;;;11.70;99.90;;;;;;7394325;19;20459;-76
2023/03/14 04:14:16;;;;;;;2.30;0.63;;;11.70;99.90;;;;;;7392542;19;20135;-76
2023/03/14 04:16:41;;;;;;;1.20;0.67;;;11.80;99.90;;;;;;7393465;19;20947;-76
2023/03/14 04:19:07;;;;;;;3.40;0.60;;;11.60;99.90;;;;;;7393639;19;20151;-77
2023/03/14 04:21:33;;;;;;;1.80;0.70;;;11.60;99.90;;;;;;7393315;19;20553;-77
2023/03/14 04:24:01;;;;;;;0.83;0.40;;;11.60;99.90;;;;;;7391574;19;20155;-76
2023/03/14 04:26:27;;;;;;;0.80;0.50;;;11.50;99.90;;;;;;7392795;19;20145;-78
2023/03/14 04:28:53;;;;;;;0.70;0.50;;;11.50;99.90;;;;;;7391142;19;20831;-75
2023/03/14 04:31:20;;;;;;;2.70;0.70;;;11.60;99.90;;;;;;7392064;19;20487;-77
2023/03/14 04:33:47;;;;;;;1.90;0.67;;;11.70;99.90;;;;;;7392508;19;20134;-77
2023/03/14 04:36:13;;;;;;;2.33;0.60;;;11.50;99.90;;;;;;7385398;19;20146;-76
2023/03/14 04:38:40;;;;;;;0.83;0.57;;;11.50;99.90;;;;;;7393460;19;20135;-76
2023/03/14 04:41:06;;;;;;;3.70;0.80;;;11.50;99.90;;;;;;7390562;19;20234;-77
2023/03/14 04:43:36;;;;;;;2.07;0.90;;;11.50;99.90;;;;;;7393373;19;20166;-76
2023/03/14 04:46:02;;;;;;;1.33;0.60;;;11.70;99.90;;;;;;7391822;19;20164;-77
2023/03/14 04:48:28;;;;;;;2.77;0.90;;;11.50;99.90;;;;;;7391182;19;20678;-76
2023/03/14 04:50:54;;;;;;;1.20;0.50;;;11.40;99.90;;;;;;7389846;19;20145;-76
2023/03/14 04:53:21;;;;;;;1.57;0.90;;;11.60;99.90;;;;;;7392626;19;20587;-77
2023/03/14 04:55:51;;;;;;;2.07;0.70;;;11.50;99.90;;;;;;7395163;19;20205;-76
2023/03/14 04:58:17;;;;;;;2.90;0.80;;;11.60;99.90;;;;;;7393588;19;20142;-76
2023/03/14 05:00:44;;;;;;;1.13;0.60;;;11.60;99.90;;;;;;7391909;19;20155;-77
2023/03/14 05:03:10;;;;;;;2.10;0.60;;;11.50;99.90;;;;;;7391312;19;20610;-77
2023/03/14 05:05:36;;;;;;;1.33;0.57;;;11.40;99.90;;;;;;7391464;19;20214;-78
2023/03/14 05:08:02;;;;;;;2.80;0.63;;;11.40;99.90;;;;;;7390766;19;20639;-76
2023/03/14 05:10:27;;;;;;;3.10;0.90;;;11.50;99.90;;;;;;7390427;19;20588;-77
2023/03/14 05:12:54;;;;;;;3.23;0.87;;;11.70;99.90;;;;;;7391252;19;20143;-76
2023/03/14 05:15:20;;;;;;;3.13;0.60;;;11.60;99.90;;;;;;7391308;19;20163;-77
2023/03/14 05:17:46;;;;;;;1.83;0.70;;;11.60;99.90;;;;;;7392185;19;20494;-76
2023/03/14 05:20:15;;;;;;;1.57;0.77;;;11.80;99.90;;;;;;7388406;19;20147;-76
2023/03/14 05:22:41;;;;;;;2.87;0.70;;;11.80;99.90;;;;;;7391074;19;20150;-78
2023/03/14 05:25:08;;;;;;;3.07;0.83;;;11.80;99.90;;;;;;7389674;19;20172;-75
2023/03/14 05:27:34;;;;;;;2.00;0.87;;;11.80;99.90;;;;;;7391248;19;20162;-76
2023/03/14 05:30:00;;;;;;;1.70;0.60;;;11.80;99.90;;;;;;7388943;19;20150;-77
2023/03/14 05:32:26;;;;;;;1.57;0.60;;;11.60;99.90;;;;;;7391369;19;20153;-77
2023/03/14 05:34:51;;;;;;;3.47;0.80;;;11.70;99.90;;;;;;7389781;19;20318;-76
2023/03/14 05:37:17;;;;;;;3.87;0.70;;;11.70;99.90;;;;;;7392019;19;20254;-76
2023/03/14 05:39:43;;;;;;;3.55;0.70;;;11.60;99.90;;;;;;7388292;19;20161;-76
2023/03/14 05:42:09;;;;;;;2.33;0.77;;;11.40;99.90;;;;;;7390362;19;20142;-76
2023/03/14 05:44:35;;;;;;;1.13;0.60;;;11.40;99.90;;;;;;7389148;19;20162;-76
2023/03/14 05:47:02;;;;;;;2.40;0.70;;;11.30;99.90;;;;;;7390326;19;20154;-76
2023/03/14 05:49:29;;;;;;;1.10;0.60;;;11.50;99.90;;;;;;7389995;19;20146;-76
2023/03/14 05:51:54;;;;;;;1.30;0.70;;;11.40;99.90;;;;;;7388598;19;20158;-76
2023/03/14 05:54:20;;;;;;;1.93;0.77;;;11.40;99.90;;;;;;7391466;19;20134;-76
2023/03/14 05:56:46;;;;;;;2.03;0.63;;;11.60;99.90;;;;;;7388999;19;20138;-76
2023/03/14 05:59:13;;;;;;;2.35;0.80;;;11.70;99.90;;;;;;7390105;19;20151;-77
2023/03/14 06:01:39;;;;;;;2.10;0.70;;;11.80;99.90;;;;;;7389168;19;20158;-76
2023/03/14 06:04:05;;;;;;;3.03;0.70;;;11.70;99.90;;;;;;7389230;19;20171;-76
2023/03/14 06:06:30;;;;;;;1.77;0.60;;;11.70;99.90;;;;;;7387646;19;20134;-75
2023/03/14 06:08:56;;;;;;;3.33;0.80;;;11.80;99.90;;;;;;7388152;19;20131;-76
2023/03/14 06:11:22;;;;;;;1.53;0.63;;;11.70;99.90;;;;;;7388291;19;20237;-77
2023/03/14 06:13:47;;;;;;;3.30;0.80;;;11.80;99.90;;;;;;7387780;19;20146;-75
2023/03/14 06:16:14;;;;;;;4.33;0.80;;;11.70;99.90;;;;;;7390027;19;20145;-76
2023/03/14 06:18:40;;;;;;;1.02;0.47;;;11.80;99.90;;;;;;7388086;19;20151;-76
2023/03/14 06:21:06;;;;;;;2.73;0.70;;;11.70;99.90;;;;;;7389649;19;20492;-76
2023/03/14 06:23:32;;;;;;;3.40;0.90;;;12.00;99.90;;;;;;7389022;19;20166;-77
2023/03/14 06:25:57;;;;;;;3.53;0.80;;;11.90;99.90;;;;;;7387850;19;20143;-78
2023/03/14 06:28:23;;;;;;;5.13;0.90;;;12.00;99.90;;;;;;7389312;19;20134;-76
2023/03/14 06:30:49;;;;;;;2.22;0.65;;;11.90;99.90;;;;;;7385449;19;20142;-77
2023/03/14 06:33:17;;;;;;;1.47;0.73;;;11.80;99.90;;;;;;7385989;19;20153;-79
2023/03/14 06:35:42;;;;;;;3.60;0.90;;;12.00;99.90;;;;;;7388404;19;20163;-79
2023/03/14 06:38:08;;;;;;;2.80;0.80;;;12.10;99.90;;;;;;7384511;19;20142;-76
2023/03/14 06:40:36;;;;;;;4.30;2.60;;;12.00;99.90;;;;;;7387110;19;20146;-78
2023/03/14 06:43:01;;;;;;;3.70;2.10;;;12.10;99.90;;;;;;7388423;19;20166;-77
2023/03/14 06:45:27;;;;;;;2.15;0.90;;;12.10;99.90;;;;;;7391307;19;20134;-75
2023/03/14 06:47:54;;;;;;;2.03;0.70;;;11.80;99.90;;;;;;7397420;19;20131;-77
2023/03/14 06:50:22;;;;;;;1.47;0.70;;;12.00;99.90;;;;;;7400523;19;20134;-76
2023/03/14 06:52:47;;;;;;;0.90;0.60;;;12.00;99.90;;;;;;7402372;19;20138;-78
2023/03/14 06:55:16;;;;;;;2.33;0.83;;;12.00;99.90;;;;;;7400353;19;20142;-78
2023/03/14 06:57:43;;;;;;;3.27;0.90;;;11.90;99.90;;;;;;7401722;19;20207;-77
2023/03/14 07:00:11;;;;;;;1.07;0.70;;;11.90;99.90;;;;;;7400462;19;20270;-78
2023/03/14 07:02:37;;;;;;;0.90;0.80;;;11.80;99.90;;;;;;7402870;19;20143;-76
2023/03/14 07:05:04;;;;;;;1.80;0.80;;;11.90;99.90;;;;;;7400191;19;20178;-77
2023/03/14 07:07:29;;;;;;;3.67;0.90;;;12.20;99.90;;;;;;7400826;19;20230;-76
2023/03/14 07:09:55;;;;;;;1.23;0.87;;;12.20;99.90;;;;;;7397367;19;20532;-78
2023/03/14 07:12:21;;;;;;;2.50;1.00;;;12.20;99.90;;;;;;7400418;19;20167;-75
2023/03/14 07:14:48;;;;;;;1.00;0.50;;;12.40;99.90;;;;;;7400941;19;20206;-75
2023/03/14 07:17:15;;;;;;;3.17;0.80;;;12.40;99.90;;;;;;7399993;19;20141;-76
2023/03/14 07:19:41;;;;;;;1.30;0.60;;;12.30;99.90;;;;;;7399835;19;20139;-75
2023/03/14 07:22:07;;;;;;;3.22;0.80;;;12.40;99.90;;;;;;7400121;19;20214;-73
2023/03/14 07:24:33;;;;;;;1.20;0.70;;;12.20;99.90;;;;;;7398430;19;20139;-75
2023/03/14 07:26:59;;;;;;;0.60;0.40;;;12.20;99.90;;;;;;7393509;19;20652;-75
2023/03/14 07:29:25;;;;;;;2.50;0.50;;;12.10;99.90;;;;;;7399025;19;20165;-74
2023/03/14 07:31:50;;;;;;;2.83;0.55;;;12.20;99.90;;;;;;7397630;19;20135;-76
2023/03/14 07:34:16;;;;;;;2.43;0.60;;;12.20;99.90;;;;;;7397500;19;20603;-76
2023/03/14 07:36:42;;;;;;;0.70;0.50;;;12.00;99.90;;;;;;7400276;19;20137;-76
2023/03/14 07:39:08;;;;;;;1.90;0.47;;;12.10;99.90;;;;;;7403008;19;20173;-77
2023/03/14 07:41:36;;;;;;;0.83;0.50;;;12.00;99.90;;;;;;7401396;19;20492;-74
2023/03/14 07:44:02;;;;;;;1.42;0.70;;;12.10;99.90;;;;;;7403242;19;20138;-76
2023/03/14 07:46:28;;;;;;;4.13;0.77;;;12.10;99.90;;;;;;7400530;19;20178;-75
2023/03/14 07:48:54;;;;;;;0.73;0.50;;;12.10;99.90;;;;;;7399651;19;20138;-76
2023/03/14 07:51:20;;;;;;;1.93;0.40;;;12.10;99.90;;;;;;7399383;19;20139;-76
2023/03/14 07:53:46;;;;;;;1.13;0.90;;;12.20;99.90;;;;;;7400459;19;20612;-74
2023/03/14 07:56:11;;;;;;;2.63;0.80;;;12.20;99.90;;;;;;7396459;19;20135;-76
2023/03/14 07:58:37;;;;;;;3.13;0.57;;;12.20;99.90;;;;;;7392882;19;20167;-75
2023/03/14 08:01:03;;;;;;;1.47;0.63;;;12.30;99.90;;;;;;7393931;19;20134;-77
2023/03/14 08:03:29;;;;;;;0.47;0.40;;;12.40;99.90;;;;;;7393678;19;20543;-75
2023/03/14 08:05:55;;;;;;;0.90;0.50;;;12.40;99.90;;;;;;7393324;19;20135;-75
2023/03/14 08:08:20;;;;;;;1.10;0.80;;;12.50;99.90;;;;;;7391376;19;20130;-76
2023/03/14 08:10:46;;;;;;;3.03;0.70;;;12.50;99.90;;;;;;7391088;19;20123;-76
2023/03/14 08:13:12;;;;;;;1.38;0.57;;;12.60;99.90;;;;;;7393081;19;20201;-76
2023/03/14 08:15:38;;;;;;;2.55;1.20;;;12.70;99.90;;;;;;7391811;19;20210;-76
2023/03/14 08:18:05;;;;;;;0.55;0.50;;;12.80;99.90;;;;;;7397138;19;20615;-74
2023/03/14 08:20:31;;;;;;;2.00;0.60;;;12.80;99.90;;;;;;7402595;19;20159;-74
2023/03/14 08:22:58;;;;;;;2.90;1.23;;;12.80;99.90;;;;;;7390832;19;20139;-76
2023/03/14 08:25:25;;;;;;;0.63;0.40;;;12.80;99.90;;;;;;7393145;19;20164;-75
2023/03/14 08:27:51;;;;;;;0.87;0.47;;;13.00;99.90;;;;;;7394773;19;20146;-75
2023/03/14 08:30:18;;;;;;;0.50;0.50;;;13.00;99.90;;;;;;7393309;19;20174;-76
2023/03/14 08:32:44;;;;;;;4.18;2.65;;;13.10;99.90;;;;;;7393928;19;20598;-75
2023/03/14 08:35:10;;;;;;;4.77;2.00;;;13.10;99.90;;;;;;7390949;19;20263;-75
2023/03/14 08:37:36;;;;;;;0.55;0.30;;;13.50;99.90;;;;;;7392518;19;20619;-75
2023/03/14 08:40:09;;;;;;;0.93;0.60;;;13.70;99.90;;;;;;7393006;19;20142;-75
2023/03/14 08:42:39;;;;;;;1.73;0.50;;;13.80;99.90;;;;;;7390734;19;20150;-76
2023/03/14 08:45:07;;;;;;;0.70;0.30;;;14.10;99.90;;;;;;7390142;19;20178;-74
2023/03/14 08:47:34;;;;;;;2.67;0.70;;;14.20;99.90;;;;;;7390036;19;20148;-75
2023/03/14 08:50:00;;;;;;;2.85;0.88;;;14.20;99.90;;;;;;7388440;19;20143;-75
2023/03/14 08:52:26;;;;;;;0.50;0.50;;;14.40;99.90;;;;;;7390865;19;20579;-76
2023/03/14 08:54:52;;;;;;;1.77;0.90;;;14.40;99.90;;;;;;7391228;19;20580;-75
2023/03/14 08:57:18;;;;;;;0.63;0.40;;;14.50;99.90;;;;;;7393201;19;20126;-75
2023/03/14 08:59:44;;;;;;;0.70;0.50;;;14.40;99.90;;;;;;7392728;19;20149;-74
2023/03/14 09:02:13;;;;;;;0.77;0.40;;;14.20;99.90;;;;;;7390722;19;20141;-76
2023/03/14 09:04:39;;;;;;;1.30;0.47;;;14.30;99.90;;;;;;7389960;19;20178;-76
2023/03/14 09:07:04;;;;;;;1.98;0.55;;;14.40;99.90;;;;;;7390686;19;20685;-76
2023/03/14 09:09:30;;;;;;;0.43;0.43;;;14.50;99.90;;;;;;7387814;19;20271;-75
2023/03/14 09:11:56;;;;;;;2.88;0.50;;;14.60;99.90;;;;;;7389933;19;20143;-75
2023/03/14 09:14:22;;;;;;;1.33;0.40;;;14.50;99.90;;;;;;7392196;19;20135;-75
2023/03/14 09:16:49;;;;;;;0.30;0.30;;;14.70;99.90;;;;;;7391958;19;20628;-76
2023/03/14 09:19:14;;;;;;;1.05;0.43;;;14.60;99.90;;;;;;7392030;19;20152;-76
2023/03/14 09:21:40;;;;;;;0.82;0.50;;;14.80;99.90;;;;;;7388794;19;20131;-75
2023/03/14 09:24:06;;;;;;;1.17;0.30;;;15.10;99.90;;;;;;7392575;19;20135;-74
2023/03/14 09:26:32;;;;;;;0.73;0.40;;;15.10;99.90;;;;;;7392786;19;20194;-75
2023/03/14 09:28:58;;;;;;;0.47;0.30;;;15.30;99.90;;;;;;7391921;19;20134;-75
2023/03/14 09:31:24;;;;;;;1.40;0.65;;;15.30;99.90;;;;;;7390021;19;20492;-76
2023/03/14 09:33:50;;;;;;;2.65;0.70;;;15.30;99.90;;;;;;7391608;19;20134;-75
2023/03/14 09:36:15;;;;;;;0.98;0.50;;;15.50;99.90;;;;;;7389465;19;20159;-76
2023/03/14 09:38:41;;;;;;;1.15;0.60;;;15.60;99.90;;;;;;7390637;19;20135;-76
2023/03/14 09:41:17;;;;;;;1.25;0.40;;;15.20;99.90;;;;;;7390102;19;20131;-76
2023/03/14 09:43:46;;;;;;;0.63;0.45;;;15.20;99.90;;;;;;7389595;19;20646;-76
2023/03/14 09:46:13;;;;;;;0.93;0.38;;;14.90;99.90;;;;;;7391574;19;20235;-75
2023/03/14 09:48:40;;;;;;;1.05;0.30;;;14.80;99.90;;;;;;7390521;19;20126;-74
2023/03/14 09:51:20;;;;;;;0.60;0.50;;;14.70;99.90;;;;;;7388988;19;20606;-75
2023/03/14 09:53:48;;;;;;;0.50;0.50;;;14.80;99.90;;;;;;7390956;19;20142;-76
2023/03/14 09:56:24;;;;;;;2.47;0.47;;;14.80;99.90;;;;;;7391906;19;20161;-76
2023/03/14 09:58:56;;;;;;;0.68;0.30;;;14.90;99.90;;;;;;7392010;19;20141;-76
2023/03/14 10:01:26;;;;;;;0.88;0.40;;;14.50;99.90;;;;;;7390744;19;20512;-75
2023/03/14 10:03:56;;;;;;;0.70;0.40;;;14.40;99.90;;;;;;7390972;19;20619;-76
2023/03/14 10:06:26;;;;;;;0.40;0.40;;;14.50;99.90;;;;;;7388933;19;20157;-75
2023/03/14 10:08:52;;;;;;;0.90;0.60;;;14.50;99.90;;;;;;7390539;19;20239;-76
2023/03/14 10:11:19;;;;;;;1.10;0.38;;;14.50;99.90;;;;;;7386363;19;20785;-75
2023/03/14 10:14:03;;;;;;;0.57;0.52;;;14.50;99.90;;;;;;7387011;19;20230;-75
2023/03/14 10:16:31;;;;;;;1.05;0.57;;;14.50;99.90;;;;;;7390586;19;20135;-76
2023/03/14 10:19:04;;;;;;;0.98;0.30;;;14.70;99.90;;;;;;7389716;19;20174;-73
2023/03/14 10:21:34;;;;;;;0.40;0.40;;;14.80;99.90;;;;;;7386270;19;20154;-76
2023/03/14 10:24:27;;;;;;;0.98;0.50;;;15.10;99.90;;;;;;7390716;19;20135;-76
2023/03/14 10:26:54;;;;;;;0.55;0.40;;;15.30;99.90;;;;;;7388519;19;20141;-76
2023/03/14 10:29:24;;;;;;;0.52;0.52;;;15.50;99.90;;;;;;7387626;19;20130;-75
2023/03/14 10:31:55;;;;;;;0.65;0.35;;;15.30;99.90;;;;;;7388443;19;20722;-75
2023/03/14 10:34:27;;;;;;;2.35;0.70;;;15.30;99.90;;;;;;7389123;19;20214;-75
2023/03/14 10:36:54;;;;;;;1.42;0.80;;;15.10;99.90;;;;;;7388621;19;20174;-76
2023/03/14 10:39:49;;;;;;;0.40;0.38;;;15.10;99.90;;;;;;7386698;19;20174;-76
2023/03/14 10:42:24;;;;;;;4.18;1.42;;;14.90;99.90;;;;;;7386956;19;20139;-75
2023/03/14 10:44:59;;;;;;;0.60;0.60;;;15.00;99.90;;;;;;7397417;19;20134;-76
2023/03/14 10:47:28;;;;;;;0.90;0.60;;;15.00;99.90;;;;;;7388999;19;20160;-75
2023/03/14 10:49:54;;;;;;;0.88;0.47;;;14.90;99.90;;;;;;7384623;19;20611;-76
2023/03/14 10:52:27;;;;;;;0.73;0.40;;;14.80;99.90;;;;;;7385845;19;20157;-77
2023/03/14 10:55:02;;;;;;;1.13;0.43;;;14.90;99.90;;;;;;7387602;19;20139;-74
2023/03/14 10:57:28;;;;;;;0.40;0.40;;;14.80;99.90;;;;;;7389176;19;20142;-77
2023/03/14 10:59:58;;;;;;;0.47;0.38;;;14.70;99.90;;;;;;7387943;19;20142;-75
2023/03/14 11:02:59;;;;;;;1.00;0.75;;;14.50;99.90;;;;;;7388017;19;20454;-77
2023/03/14 11:05:41;;;;;;;1.95;0.80;;;14.40;99.90;;;;;;7388729;19;20495;-75
2023/03/14 11:08:28;;;;;;;1.08;0.63;;;14.30;99.90;;;;;;7387711;19;20506;-76
2023/03/14 11:11:05;;;;;;;0.22;0.20;;;14.40;99.90;;;;;;7392391;19;20159;-75
2023/03/14 11:13:54;;;;;;;1.98;1.15;;;14.50;99.90;;;;;;7392721;19;20146;-73
2023/03/14 11:16:43;;;;;;;0.70;0.70;;;14.40;99.90;;;;;;7386903;19;20159;-76
2023/03/14 11:19:33;;;;;;;0.30;0.30;;;14.20;99.90;;;;;;7390749;19;20142;-75
2023/03/14 11:22:22;;;;;;;0.65;0.40;;;14.10;99.90;;;;;;7387060;19;20130;-75
2023/03/14 11:25:20;;;;;;;2.28;0.70;;;14.30;99.90;;;;;;7396859;19;20166;-74
2023/03/14 11:28:24;;;;;;;1.30;0.40;;;14.30;99.90;;;;;;7387276;19;20515;-75
2023/03/14 11:30:52;;;;;;;0.40;0.40;;;13.90;99.90;;;;;;7387819;19;20149;-75
2023/03/14 11:33:53;;;;;;;0.38;0.32;;;13.70;99.90;;;;;;7394273;19;20157;-76
2023/03/14 11:36:27;;;;;;;0.80;0.50;;;13.50;99.90;;;;;;7395414;19;20138;-75
2023/03/14 11:38:57;;;;;;;0.47;0.45;;;13.50;99.90;;;;;;7395743;19;20156;-76
2023/03/14 11:41:30;;;;;;;1.20;0.65;;;13.60;99.90;;;;;;7394066;19;20669;-74
2023/03/14 11:43:59;;;;;;;2.05;0.47;;;13.60;99.90;;;;;;7401345;19;20160;-76
2023/03/14 11:47:03;;;;;;;3.20;1.30;;;13.50;99.90;;;;;;7395622;19;20143;-75
2023/03/14 11:49:51;;;;;;;0.90;0.57;;;13.40;99.90;;;;;;7396363;19;20156;-75
2023/03/14 11:52:32;;;;;;;1.15;0.90;;;13.60;99.90;;;;;;7398499;19;20130;-75
2023/03/14 11:55:05;;;;;;;0.95;0.77;;;13.60;99.90;;;;;;7390609;19;20150;-75
2023/03/14 11:57:30;;;;;;;1.10;0.80;;;13.70;99.90;;;;;;7393348;19;20143;-74
2023/03/14 12:00:08;;;;;;;0.75;0.70;;;13.70;99.90;;;;;;7391586;19;20202;-75
2023/03/14 12:02:56;;;;;;;3.08;0.95;;;13.60;99.90;;;;;;7394111;19;20230;-76
2023/03/14 12:05:48;;;;;;;1.27;0.82;;;13.60;99.90;;;;;;7391058;19;20151;-77
2023/03/14 12:08:38;;;;;;;2.47;0.50;;;13.70;99.90;;;;;;7391051;19;20139;-76
2023/03/14 12:11:38;;;;;;;1.63;0.45;;;13.60;99.90;;;;;;7391057;19;20159;-77
2023/03/14 12:14:19;;;;;;;0.80;0.30;;;13.60;99.90;;;;;;7401828;19;20170;-75
2023/03/14 12:16:50;;;;;;;1.33;0.93;;;13.60;99.90;;;;;;7392542;19;20141;-75
2023/03/14 12:19:19;;;;;;;1.08;0.40;;;13.70;99.90;;;;;;7393428;19;20174;-75
2023/03/14 12:21:48;;;;;;;0.75;0.38;;;13.70;99.90;;;;;;7394036;19;20142;-77
2023/03/14 12:24:25;;;;;;;0.30;0.30;;;13.40;99.90;;;;;;7390694;19;20442;-76
2023/03/14 12:27:00;;;;;;;0.70;0.50;;;13.10;99.90;;;;;;7389794;19;20238;-78
2023/03/14 12:29:27;;;;;;;0.60;0.40;;;13.40;99.90;;;;;;7389477;19;20139;-76
2023/03/14 12:32:08;;;;;;;0.30;0.30;;;13.70;99.90;;;;;;7390804;19;20222;-77
2023/03/14 12:34:42;;;;;;;0.35;0.35;;;13.70;99.90;;;;;;7394390;19;20607;-77
2023/03/14 12:37:25;;;;;;;1.85;0.30;;;13.60;99.90;;;;;;7385171;19;20150;-76
2023/03/14 12:40:05;;;;;;;0.32;0.30;;;13.70;99.90;;;;;;7390529;19;20147;-75
2023/03/14 12:42:40;;;;;;;1.50;0.57;;;13.60;99.90;;;;;;7389416;19;20527;-75
2023/03/14 12:45:34;;;;;;;0.60;0.50;;;13.70;99.90;;;;;;7390305;19;20158;-77
2023/03/14 12:48:15;;;;;;;1.55;0.70;;;13.80;99.90;;;;;;7391466;19;20161;-76
2023/03/14 12:50:52;;;;;;;1.23;0.40;;;13.20;99.90;;;;;;7393097;19;20149;-76
2023/03/14 12:53:37;;;;;;;0.50;0.45;;;13.00;99.90;;;;;;7390150;19;20158;-76
2023/03/14 12:56:11;;;;;;;1.98;0.47;;;13.00;99.90;;;;;;7387585;19;20154;-76
2023/03/14 12:59:18;;;;;;;0.93;0.50;;;13.40;99.90;;;;;;7392187;19;20138;-73
2023/03/14 13:02:43;;;;;;;0.85;0.57;;;13.80;99.90;;;;;;7391098;19;20200;-76
2023/03/14 13:05:13;;;;;;;0.50;0.50;;;13.70;99.90;;;;;;7385317;19;20192;-76